createdAt,value
2022-07-26T00:02:23.307Z,0.98
2022-07-26T00:07:24.932Z,0.90
2022-07-26T00:12:26.699Z,1.15
2022-07-26T00:17:28.327Z,0.88
2022-07-26T00:22:29.899Z,0.77
2022-07-26T00:27:31.681Z,0.90
2022-07-26T00:32:33.429Z,1.27
2022-07-26T00:37:35.115Z,1.38
2022-07-26T00:42:37.098Z,0.95
2022-07-26T00:47:38.823Z,1.48
2022-07-26T00:52:44.642Z,1.15
2022-07-26T00:57:46.595Z,1.15
2022-07-26T01:02:48.514Z,1.10
2022-07-26T01:07:50.276Z,1.58
2022-07-26T01:12:51.860Z,1.75
2022-07-26T01:17:53.479Z,1.00
2022-07-26T01:22:55.062Z,1.40
2022-07-26T01:27:56.704Z,1.33
2022-07-26T01:32:58.247Z,1.00
2022-07-26T01:38:00.115Z,1.13
2022-07-26T01:43:01.689Z,1.10
2022-07-26T01:48:03.279Z,1.27
2022-07-26T01:53:06.356Z,1.35
2022-07-26T01:58:08.559Z,1.73
2022-07-26T02:03:10.598Z,1.00
2022-07-26T02:08:12.356Z,1.23
2022-07-26T02:13:14.284Z,1.55
2022-07-26T02:18:15.928Z,1.33
2022-07-26T02:23:17.517Z,1.67
2022-07-26T02:28:19.306Z,2.13
2022-07-26T02:33:21.048Z,1.42
2022-07-26T02:38:22.647Z,1.50
2022-07-26T02:43:26.741Z,1.27
2022-07-26T02:48:30.499Z,1.58
2022-07-26T02:53:32.098Z,1.00
2022-07-26T02:58:33.697Z,1.48
2022-07-26T03:03:36.728Z,1.58
2022-07-26T03:08:39.926Z,1.23
2022-07-26T03:13:41.508Z,1.95
2022-07-26T03:18:43.047Z,1.60
2022-07-26T03:23:44.645Z,1.30
2022-07-26T03:28:46.313Z,1.45
2022-07-26T03:33:47.863Z,1.65
2022-07-26T03:38:49.418Z,1.73
2022-07-26T03:43:50.998Z,1.60
2022-07-26T03:48:52.624Z,1.60
2022-07-26T03:53:54.224Z,1.60
2022-07-26T03:58:56.134Z,2.28
2022-07-26T04:03:57.830Z,1.30
2022-07-26T04:08:59.542Z,2.03
2022-07-26T04:14:01.706Z,1.60
2022-07-26T04:19:03.368Z,1.92
2022-07-26T04:24:05.433Z,1.60
2022-07-26T04:29:07.127Z,2.13
2022-07-26T04:34:10.865Z,1.60
2022-07-26T04:39:12.706Z,1.70
2022-07-26T04:44:14.224Z,1.50
2022-07-26T04:49:15.811Z,1.95
2022-07-26T04:54:17.388Z,1.52
2022-07-26T04:59:21.859Z,2.00
2022-07-26T05:04:23.690Z,2.05
2022-07-26T05:09:25.235Z,2.97
2022-07-26T05:14:26.859Z,1.70
2022-07-26T05:19:29.920Z,1.48
2022-07-26T05:24:31.460Z,2.33
2022-07-26T05:29:33.040Z,2.25
2022-07-26T05:34:34.577Z,1.88
2022-07-26T05:39:36.145Z,2.58
2022-07-26T05:44:42.768Z,2.90
2022-07-26T05:49:44.538Z,2.80
2022-07-26T05:54:46.102Z,2.65
2022-07-26T05:59:47.637Z,2.67
2022-07-26T06:04:49.399Z,3.08
2022-07-26T06:09:51.005Z,3.97
2022-07-26T06:14:52.601Z,3.88
2022-07-26T06:19:54.229Z,3.42
2022-07-26T06:24:55.834Z,4.00
2022-07-26T06:29:57.388Z,4.38
2022-07-26T06:34:58.936Z,4.10
2022-07-26T06:40:00.504Z,4.28
2022-07-26T06:45:02.693Z,4.38
2022-07-26T06:50:05.131Z,5.00
2022-07-26T06:55:07.310Z,4.28
2022-07-26T07:00:09.692Z,4.63
2022-07-26T07:05:11.457Z,4.50
2022-07-26T07:10:13.292Z,4.70
2022-07-26T07:15:14.813Z,5.07
2022-07-26T07:20:16.477Z,4.93
2022-07-26T07:25:18.133Z,4.60
2022-07-26T07:30:24.814Z,5.68
2022-07-26T07:35:31.937Z,5.05
2022-07-26T07:40:33.981Z,5.28
2022-07-26T07:45:35.554Z,4.28
2022-07-26T07:50:37.181Z,4.90
2022-07-26T07:55:41.468Z,4.00
2022-07-26T08:00:48.145Z,4.25
2022-07-26T08:05:50.737Z,4.30
2022-07-26T08:10:53.233Z,4.00
2022-07-26T08:15:55.844Z,5.40
2022-07-26T08:20:57.833Z,4.60
2022-07-26T08:26:04.720Z,4.75
2022-07-26T08:31:08.067Z,5.22
2022-07-26T08:36:09.705Z,6.82
2022-07-26T08:41:11.405Z,5.22
2022-07-26T08:46:13.004Z,6.65
2022-07-26T08:51:17.658Z,7.18
2022-07-26T08:56:19.180Z,7.20
2022-07-26T09:01:20.868Z,7.35
2022-07-26T09:06:26.009Z,7.65
2022-07-26T09:11:32.207Z,7.15
2022-07-26T09:16:38.785Z,7.10
2022-07-26T09:21:41.477Z,5.97
2022-07-26T09:26:55.962Z,4.93
2022-07-26T09:32:12.521Z,5.15
2022-07-26T09:37:17.849Z,4.60
2022-07-26T09:42:28.595Z,5.25
2022-07-26T09:47:38.592Z,4.75
2022-07-26T09:52:40.355Z,4.65
2022-07-26T09:57:42.007Z,4.25
2022-07-26T10:02:43.738Z,3.95
2022-07-26T10:07:45.525Z,4.00
2022-07-26T10:12:50.451Z,3.75
2022-07-26T10:17:51.979Z,3.40
2022-07-26T10:22:55.778Z,3.05
2022-07-26T10:27:58.153Z,2.88
2022-07-26T10:33:01.722Z,3.63
2022-07-26T10:38:05.798Z,2.70
2022-07-26T10:43:39.639Z,3.03
2022-07-26T10:48:55.690Z,3.97
2022-07-26T10:54:13.197Z,3.70
2022-07-26T10:59:27.943Z,4.13
2022-07-26T11:04:36.985Z,4.00
2022-07-26T11:09:39.208Z,3.60
2022-07-26T11:14:44.960Z,4.30
2022-07-26T11:19:49.910Z,3.28
2022-07-26T11:24:51.727Z,3.83
2022-07-26T11:29:53.337Z,2.90
2022-07-26T11:35:04.016Z,2.40
2022-07-26T11:40:06.129Z,2.05
2022-07-26T11:45:10.473Z,2.35
2022-07-26T11:50:21.644Z,2.40
2022-07-26T11:55:31.288Z,2.17
2022-07-26T12:00:33.049Z,2.63
2022-07-26T12:05:34.995Z,2.65
2022-07-26T12:10:36.743Z,4.07
2022-07-26T12:16:04.791Z,5.50
2022-07-26T12:21:09.079Z,7.22
2022-07-26T12:26:28.371Z,7.65
2022-07-26T12:31:32.121Z,6.28
2022-07-26T12:36:34.383Z,5.90
2022-07-26T12:41:40.196Z,5.80
2022-07-26T12:46:42.034Z,6.28
2022-07-26T12:51:43.637Z,4.20
2022-07-26T12:56:46.364Z,3.33
2022-07-26T13:01:51.031Z,2.43
2022-07-26T13:06:52.721Z,2.30
2022-07-26T13:11:54.589Z,1.80
2022-07-26T13:16:56.293Z,1.83
2022-07-26T13:21:59.470Z,2.03
2022-07-26T13:27:02.437Z,2.20
2022-07-26T13:32:04.687Z,2.35
2022-07-26T13:37:08.116Z,2.65
2022-07-26T13:42:10.162Z,2.50
2022-07-26T13:47:11.722Z,2.33
2022-07-26T13:52:16.670Z,2.10
2022-07-26T13:57:18.525Z,1.92
2022-07-26T14:02:20.285Z,1.92
2022-07-26T14:07:21.990Z,1.98
2022-07-26T14:12:23.605Z,2.17
2022-07-26T14:17:25.173Z,1.50
2022-07-26T14:22:26.881Z,1.70
2022-07-26T14:27:28.400Z,1.90
2022-07-26T14:32:30.015Z,1.70
2022-07-26T14:37:44.323Z,1.20
2022-07-26T14:42:48.504Z,2.05
2022-07-26T14:47:50.062Z,1.92
2022-07-26T14:52:53.230Z,2.28
2022-07-26T14:57:54.785Z,2.15
2022-07-26T15:02:56.427Z,2.25
2022-07-26T15:08:00.566Z,2.65
2022-07-26T15:13:07.091Z,1.10
2022-07-26T15:18:08.766Z,0.98
2022-07-26T15:23:11.691Z,0.93
2022-07-26T15:28:13.484Z,1.17
2022-07-26T15:33:15.058Z,1.02
2022-07-26T15:38:16.672Z,0.95
2022-07-26T15:43:43.788Z,0.90
2022-07-26T15:48:45.278Z,2.13
2022-07-26T15:53:46.918Z,1.42
2022-07-26T15:58:48.470Z,1.10
2022-07-26T16:03:50.142Z,0.80
2022-07-26T16:09:15.117Z,0.93
2022-07-26T16:14:13.439Z,1.00
2022-07-26T16:19:15.531Z,1.00
2022-07-26T16:24:17.388Z,1.13
2022-07-26T16:29:19.338Z,1.27
2022-07-26T16:34:21.125Z,1.02
2022-07-26T16:39:22.850Z,1.20
2022-07-26T16:44:24.451Z,1.15
2022-07-26T16:49:26.107Z,1.42
2022-07-26T16:54:27.766Z,1.00
2022-07-26T16:59:29.400Z,1.10
2022-07-26T17:04:31.038Z,1.08
2022-07-26T17:09:32.666Z,1.20
2022-07-26T17:14:34.236Z,0.70
2022-07-26T17:19:35.815Z,0.60
2022-07-26T17:24:37.351Z,1.40
2022-07-26T17:29:38.963Z,1.00
2022-07-26T17:34:40.611Z,0.65
2022-07-26T17:39:52.550Z,0.50
2022-07-26T17:44:55.577Z,0.90
2022-07-26T17:50:14.048Z,0.82
2022-07-26T17:55:21.478Z,0.90
2022-07-26T18:00:23.706Z,0.70
2022-07-26T18:05:34.223Z,0.90
2022-07-26T18:10:38.840Z,1.52
2022-07-26T18:15:40.444Z,1.27
2022-07-26T18:20:42.081Z,1.58
2022-07-26T18:25:43.730Z,1.33
2022-07-26T18:30:45.392Z,1.55
2022-07-26T18:35:46.934Z,1.00
2022-07-26T18:40:48.654Z,1.13
2022-07-26T18:45:50.245Z,0.90
2022-07-26T18:50:51.932Z,1.60
2022-07-26T18:55:54.826Z,1.58
2022-07-26T19:00:56.417Z,1.48
2022-07-26T19:05:57.992Z,1.63
2022-07-26T19:10:59.550Z,2.08
2022-07-26T19:16:01.227Z,1.80
2022-07-26T19:21:03.022Z,1.13
2022-07-26T19:26:04.677Z,1.50
2022-07-26T19:31:06.388Z,1.00
2022-07-26T19:36:08.146Z,1.00
2022-07-26T19:41:13.984Z,1.30
2022-07-26T19:46:17.560Z,1.42
2022-07-26T19:51:19.248Z,1.55
2022-07-26T19:56:20.855Z,1.20
2022-07-26T20:01:23.190Z,1.60
2022-07-26T20:06:27.377Z,1.52
2022-07-26T20:11:28.977Z,1.60
2022-07-26T20:16:30.705Z,1.70
2022-07-26T20:21:32.360Z,1.63
2022-07-26T20:26:34.189Z,1.27
2022-07-26T20:31:35.731Z,1.70
2022-07-26T20:36:37.531Z,1.92
2022-07-26T20:41:39.143Z,1.20
2022-07-26T20:46:40.707Z,1.45
2022-07-26T20:51:42.260Z,1.40
2022-07-26T20:56:43.884Z,1.60
2022-07-26T21:01:45.538Z,1.20
2022-07-26T21:06:47.470Z,1.33
2022-07-26T21:11:50.307Z,1.52
2022-07-26T21:16:51.949Z,2.17
2022-07-26T21:21:53.629Z,2.13
2022-07-26T21:26:55.189Z,1.42
2022-07-26T21:31:56.820Z,1.67
2022-07-26T21:36:58.390Z,1.83
2022-07-26T21:42:00.093Z,1.40
2022-07-26T21:47:01.695Z,1.38
2022-07-26T21:52:03.884Z,1.25
2022-07-26T21:57:05.496Z,2.45
2022-07-26T22:02:07.424Z,1.77
2022-07-26T22:07:09.275Z,1.38
2022-07-26T22:12:11.429Z,1.52
2022-07-26T22:17:13.040Z,1.77
2022-07-26T22:22:14.628Z,1.38
2022-07-26T22:27:16.270Z,1.20
2022-07-26T22:32:17.876Z,1.50
2022-07-26T22:37:19.581Z,1.20
2022-07-26T22:42:21.192Z,1.52
2022-07-26T22:47:22.847Z,1.55
2022-07-26T22:52:24.472Z,1.55
2022-07-26T22:57:26.069Z,1.40
2022-07-26T23:02:27.685Z,1.00
2022-07-26T23:07:29.593Z,1.95
2022-07-26T23:12:31.296Z,1.00
2022-07-26T23:17:33.093Z,1.65
2022-07-26T23:22:34.979Z,1.02
2022-07-26T23:27:36.595Z,1.63
2022-07-26T23:32:38.168Z,1.20
2022-07-26T23:37:39.858Z,0.93
2022-07-26T23:42:41.535Z,1.40
2022-07-26T23:47:43.483Z,1.27
2022-07-26T23:52:45.327Z,1.17
2022-07-26T23:57:46.970Z,1.50
